sensor_id;sensor_type;location;lat;lon;timestamp;P1;durP1;ratioP1;P2;durP2;ratioP2
64619;SDS011;51029;51.058;13.826;2023-07-16T00:01:57;7.20;;;3.60;;
64619;SDS011;51029;51.058;13.826;2023-07-16T00:04:23;7.03;;;3.10;;
64619;SDS011;51029;51.058;13.826;2023-07-16T00:06:49;7.33;;;3.10;;
64619;SDS011;51029;51.058;13.826;2023-07-16T00:09:14;4.77;;;3.27;;
64619;SDS011;51029;51.058;13.826;2023-07-16T00:11:40;5.83;;;3.20;;
64619;SDS011;51029;51.058;13.826;2023-07-16T00:14:05;5.90;;;3.67;;
64619;SDS011;51029;51.058;13.826;2023-07-16T00:16:31;5.70;;;3.60;;
64619;SDS011;51029;51.058;13.826;2023-07-16T00:18:57;6.67;;;3.80;;
64619;SDS011;51029;51.058;13.826;2023-07-16T00:21:23;7.20;;;3.80;;
64619;SDS011;51029;51.058;13.826;2023-07-16T00:23:49;7.83;;;4.00;;
64619;SDS011;51029;51.058;13.826;2023-07-16T00:26:14;9.63;;;3.50;;
64619;SDS011;51029;51.058;13.826;2023-07-16T00:28:40;6.70;;;3.50;;
64619;SDS011;51029;51.058;13.826;2023-07-16T00:31:05;6.33;;;3.53;;
64619;SDS011;51029;51.058;13.826;2023-07-16T00:33:31;4.63;;;3.93;;
64619;SDS011;51029;51.058;13.826;2023-07-16T00:35:57;5.63;;;3.77;;
64619;SDS011;51029;51.058;13.826;2023-07-16T00:38:22;6.53;;;3.63;;
64619;SDS011;51029;51.058;13.826;2023-07-16T00:40:48;5.00;;;3.33;;
64619;SDS011;51029;51.058;13.826;2023-07-16T00:43:13;7.20;;;3.77;;
64619;SDS011;51029;51.058;13.826;2023-07-16T00:45:39;6.00;;;3.50;;
64619;SDS011;51029;51.058;13.826;2023-07-16T00:48:06;4.07;;;3.37;;
64619;SDS011;51029;51.058;13.826;2023-07-16T00:50:33;5.43;;;3.57;;
64619;SDS011;51029;51.058;13.826;2023-07-16T00:53:04;5.03;;;3.40;;
64619;SDS011;51029;51.058;13.826;2023-07-16T00:55:31;4.53;;;3.20;;
64619;SDS011;51029;51.058;13.826;2023-07-16T00:58:00;5.87;;;3.70;;
64619;SDS011;51029;51.058;13.826;2023-07-16T01:00:34;3.87;;;3.30;;
64619;SDS011;51029;51.058;13.826;2023-07-16T01:03:01;5.00;;;3.37;;
64619;SDS011;51029;51.058;13.826;2023-07-16T01:05:31;4.33;;;3.57;;
64619;SDS011;51029;51.058;13.826;2023-07-16T01:08:20;4.13;;;3.47;;
64619;SDS011;51029;51.058;13.826;2023-07-16T01:10:51;6.10;;;3.87;;
64619;SDS011;51029;51.058;13.826;2023-07-16T01:13:17;4.43;;;3.50;;
64619;SDS011;51029;51.058;13.826;2023-07-16T01:15:43;8.20;;;3.40;;
64619;SDS011;51029;51.058;13.826;2023-07-16T01:18:09;5.17;;;3.10;;
64619;SDS011;51029;51.058;13.826;2023-07-16T01:20:34;4.70;;;3.10;;
64619;SDS011;51029;51.058;13.826;2023-07-16T01:23:17;3.60;;;3.00;;
64619;SDS011;51029;51.058;13.826;2023-07-16T01:31:17;3.73;;;2.60;;
64619;SDS011;51029;51.058;13.826;2023-07-16T01:33:43;4.33;;;2.83;;
64619;SDS011;51029;51.058;13.826;2023-07-16T01:36:10;3.43;;;2.50;;
64619;SDS011;51029;51.058;13.826;2023-07-16T01:38:36;3.63;;;2.80;;
64619;SDS011;51029;51.058;13.826;2023-07-16T01:41:02;5.20;;;2.73;;
64619;SDS011;51029;51.058;13.826;2023-07-16T01:43:27;3.83;;;3.03;;
64619;SDS011;51029;51.058;13.826;2023-07-16T01:45:53;5.57;;;2.60;;
64619;SDS011;51029;51.058;13.826;2023-07-16T01:50:47;3.30;;;2.60;;
64619;SDS011;51029;51.058;13.826;2023-07-16T01:53:13;3.23;;;2.50;;
64619;SDS011;51029;51.058;13.826;2023-07-16T01:55:38;2.97;;;2.40;;
64619;SDS011;51029;51.058;13.826;2023-07-16T01:58:04;2.83;;;2.40;;
64619;SDS011;51029;51.058;13.826;2023-07-16T02:00:30;3.50;;;2.20;;
64619;SDS011;51029;51.058;13.826;2023-07-16T02:02:56;2.63;;;1.90;;
64619;SDS011;51029;51.058;13.826;2023-07-16T02:05:21;3.57;;;2.20;;
64619;SDS011;51029;51.058;13.826;2023-07-16T02:07:47;4.00;;;2.10;;
64619;SDS011;51029;51.058;13.826;2023-07-16T02:10:12;3.57;;;2.03;;
64619;SDS011;51029;51.058;13.826;2023-07-16T02:12:38;2.40;;;2.03;;
64619;SDS011;51029;51.058;13.826;2023-07-16T02:15:04;2.97;;;1.70;;
64619;SDS011;51029;51.058;13.826;2023-07-16T02:17:30;2.93;;;2.20;;
64619;SDS011;51029;51.058;13.826;2023-07-16T02:19:55;2.53;;;1.60;;
64619;SDS011;51029;51.058;13.826;2023-07-16T02:22:21;3.50;;;1.87;;
64619;SDS011;51029;51.058;13.826;2023-07-16T02:24:46;4.33;;;2.03;;
64619;SDS011;51029;51.058;13.826;2023-07-16T02:27:12;3.10;;;1.90;;
64619;SDS011;51029;51.058;13.826;2023-07-16T02:29:37;3.60;;;2.10;;
64619;SDS011;51029;51.058;13.826;2023-07-16T02:32:03;1.80;;;1.70;;
64619;SDS011;51029;51.058;13.826;2023-07-16T02:34:29;2.20;;;1.60;;
64619;SDS011;51029;51.058;13.826;2023-07-16T02:36:54;2.23;;;1.70;;
64619;SDS011;51029;51.058;13.826;2023-07-16T02:39:20;2.03;;;1.63;;
64619;SDS011;51029;51.058;13.826;2023-07-16T02:41:45;3.23;;;1.60;;
64619;SDS011;51029;51.058;13.826;2023-07-16T02:44:11;2.13;;;1.50;;
64619;SDS011;51029;51.058;13.826;2023-07-16T02:46:36;2.47;;;1.83;;
64619;SDS011;51029;51.058;13.826;2023-07-16T02:49:02;3.67;;;1.67;;
64619;SDS011;51029;51.058;13.826;2023-07-16T02:51:29;3.07;;;1.90;;
64619;SDS011;51029;51.058;13.826;2023-07-16T02:53:54;2.83;;;1.60;;
64619;SDS011;51029;51.058;13.826;2023-07-16T02:56:20;5.77;;;1.90;;
64619;SDS011;51029;51.058;13.826;2023-07-16T02:58:45;1.97;;;1.60;;
64619;SDS011;51029;51.058;13.826;2023-07-16T03:01:12;4.03;;;1.80;;
64619;SDS011;51029;51.058;13.826;2023-07-16T03:03:37;3.53;;;2.07;;
64619;SDS011;51029;51.058;13.826;2023-07-16T03:06:03;3.87;;;1.93;;
64619;SDS011;51029;51.058;13.826;2023-07-16T03:08:28;2.93;;;2.10;;
64619;SDS011;51029;51.058;13.826;2023-07-16T03:10:56;2.93;;;1.73;;
64619;SDS011;51029;51.058;13.826;2023-07-16T03:13:22;2.30;;;1.50;;
64619;SDS011;51029;51.058;13.826;2023-07-16T03:15:48;3.60;;;1.90;;
64619;SDS011;51029;51.058;13.826;2023-07-16T03:18:13;4.77;;;1.80;;
64619;SDS011;51029;51.058;13.826;2023-07-16T03:20:39;2.80;;;1.77;;
64619;SDS011;51029;51.058;13.826;2023-07-16T03:23:04;2.83;;;1.50;;
64619;SDS011;51029;51.058;13.826;2023-07-16T03:25:30;4.37;;;1.80;;
64619;SDS011;51029;51.058;13.826;2023-07-16T03:27:55;2.17;;;1.53;;
64619;SDS011;51029;51.058;13.826;2023-07-16T03:30:21;2.37;;;1.60;;
64619;SDS011;51029;51.058;13.826;2023-07-16T03:32:46;3.80;;;1.93;;
64619;SDS011;51029;51.058;13.826;2023-07-16T03:35:12;3.60;;;1.63;;
64619;SDS011;51029;51.058;13.826;2023-07-16T03:37:37;2.63;;;1.70;;
64619;SDS011;51029;51.058;13.826;2023-07-16T03:40:13;4.97;;;1.73;;
64619;SDS011;51029;51.058;13.826;2023-07-16T03:42:40;2.20;;;1.60;;
64619;SDS011;51029;51.058;13.826;2023-07-16T03:45:06;3.10;;;1.80;;
64619;SDS011;51029;51.058;13.826;2023-07-16T03:47:32;3.37;;;2.27;;
64619;SDS011;51029;51.058;13.826;2023-07-16T03:49:58;4.40;;;2.10;;
64619;SDS011;51029;51.058;13.826;2023-07-16T03:52:23;3.93;;;2.30;;
64619;SDS011;51029;51.058;13.826;2023-07-16T03:54:49;3.73;;;2.13;;
64619;SDS011;51029;51.058;13.826;2023-07-16T03:57:15;2.67;;;2.10;;
64619;SDS011;51029;51.058;13.826;2023-07-16T03:59:41;3.10;;;1.83;;
64619;SDS011;51029;51.058;13.826;2023-07-16T04:02:07;4.37;;;1.90;;
64619;SDS011;51029;51.058;13.826;2023-07-16T04:04:33;4.33;;;2.10;;
64619;SDS011;51029;51.058;13.826;2023-07-16T04:06:59;5.07;;;2.47;;
64619;SDS011;51029;51.058;13.826;2023-07-16T04:09:24;5.17;;;2.20;;
64619;SDS011;51029;51.058;13.826;2023-07-16T04:11:50;4.93;;;2.23;;
64619;SDS011;51029;51.058;13.826;2023-07-16T04:14:15;2.57;;;2.30;;
64619;SDS011;51029;51.058;13.826;2023-07-16T04:16:41;3.20;;;2.10;;
64619;SDS011;51029;51.058;13.826;2023-07-16T04:19:08;3.17;;;2.00;;
64619;SDS011;51029;51.058;13.826;2023-07-16T04:21:34;5.13;;;2.10;;
64619;SDS011;51029;51.058;13.826;2023-07-16T04:24:01;3.07;;;2.27;;
64619;SDS011;51029;51.058;13.826;2023-07-16T04:26:27;3.50;;;2.00;;
64619;SDS011;51029;51.058;13.826;2023-07-16T04:28:53;6.63;;;2.03;;
64619;SDS011;51029;51.058;13.826;2023-07-16T04:31:18;2.30;;;2.07;;
64619;SDS011;51029;51.058;13.826;2023-07-16T04:33:44;3.43;;;2.17;;
64619;SDS011;51029;51.058;13.826;2023-07-16T04:36:09;4.43;;;2.00;;
64619;SDS011;51029;51.058;13.826;2023-07-16T04:38:35;4.27;;;2.17;;
64619;SDS011;51029;51.058;13.826;2023-07-16T04:41:00;3.13;;;2.30;;
64619;SDS011;51029;51.058;13.826;2023-07-16T04:43:27;4.50;;;2.50;;
64619;SDS011;51029;51.058;13.826;2023-07-16T04:45:52;2.97;;;2.10;;
64619;SDS011;51029;51.058;13.826;2023-07-16T04:48:18;3.23;;;2.30;;
64619;SDS011;51029;51.058;13.826;2023-07-16T04:50:43;3.27;;;2.30;;
64619;SDS011;51029;51.058;13.826;2023-07-16T04:53:09;3.23;;;2.00;;
64619;SDS011;51029;51.058;13.826;2023-07-16T04:55:38;3.03;;;2.40;;
64619;SDS011;51029;51.058;13.826;2023-07-16T04:58:05;2.97;;;2.10;;
64619;SDS011;51029;51.058;13.826;2023-07-16T05:00:33;6.13;;;2.40;;
64619;SDS011;51029;51.058;13.826;2023-07-16T05:02:59;3.53;;;2.23;;
64619;SDS011;51029;51.058;13.826;2023-07-16T05:05:25;3.53;;;2.10;;
64619;SDS011;51029;51.058;13.826;2023-07-16T05:07:51;5.10;;;2.10;;
64619;SDS011;51029;51.058;13.826;2023-07-16T05:10:16;3.40;;;2.10;;
64619;SDS011;51029;51.058;13.826;2023-07-16T05:12:42;2.50;;;2.07;;
64619;SDS011;51029;51.058;13.826;2023-07-16T05:15:07;2.43;;;2.07;;
64619;SDS011;51029;51.058;13.826;2023-07-16T05:17:33;3.53;;;2.00;;
64619;SDS011;51029;51.058;13.826;2023-07-16T05:19:59;2.70;;;2.10;;
64619;SDS011;51029;51.058;13.826;2023-07-16T05:22:24;3.20;;;1.87;;
64619;SDS011;51029;51.058;13.826;2023-07-16T05:24:50;3.00;;;1.80;;
64619;SDS011;51029;51.058;13.826;2023-07-16T05:27:16;2.10;;;1.80;;
64619;SDS011;51029;51.058;13.826;2023-07-16T05:29:41;2.77;;;1.80;;
64619;SDS011;51029;51.058;13.826;2023-07-16T05:32:07;2.27;;;1.80;;
64619;SDS011;51029;51.058;13.826;2023-07-16T05:34:33;2.13;;;1.80;;
64619;SDS011;51029;51.058;13.826;2023-07-16T05:36:58;2.77;;;2.13;;
64619;SDS011;51029;51.058;13.826;2023-07-16T05:39:24;2.87;;;2.03;;
64619;SDS011;51029;51.058;13.826;2023-07-16T05:41:50;2.60;;;1.93;;
64619;SDS011;51029;51.058;13.826;2023-07-16T05:44:15;3.53;;;2.07;;
64619;SDS011;51029;51.058;13.826;2023-07-16T05:46:41;2.57;;;1.93;;
64619;SDS011;51029;51.058;13.826;2023-07-16T05:49:07;2.83;;;2.00;;
64619;SDS011;51029;51.058;13.826;2023-07-16T05:51:32;4.60;;;2.07;;
64619;SDS011;51029;51.058;13.826;2023-07-16T05:53:58;2.23;;;1.90;;
64619;SDS011;51029;51.058;13.826;2023-07-16T05:56:23;3.13;;;1.93;;
64619;SDS011;51029;51.058;13.826;2023-07-16T05:58:49;2.40;;;1.80;;
64619;SDS011;51029;51.058;13.826;2023-07-16T06:01:14;2.77;;;1.70;;
64619;SDS011;51029;51.058;13.826;2023-07-16T06:03:40;2.57;;;2.20;;
64619;SDS011;51029;51.058;13.826;2023-07-16T06:06:08;4.13;;;1.93;;
64619;SDS011;51029;51.058;13.826;2023-07-16T06:08:33;2.23;;;2.00;;
64619;SDS011;51029;51.058;13.826;2023-07-16T06:10:59;3.33;;;2.10;;
64619;SDS011;51029;51.058;13.826;2023-07-16T06:13:25;2.03;;;1.83;;
64619;SDS011;51029;51.058;13.826;2023-07-16T06:15:50;3.00;;;2.10;;
64619;SDS011;51029;51.058;13.826;2023-07-16T06:18:16;2.40;;;2.10;;
64619;SDS011;51029;51.058;13.826;2023-07-16T06:20:45;2.60;;;2.40;;
64619;SDS011;51029;51.058;13.826;2023-07-16T06:23:11;3.53;;;2.00;;
64619;SDS011;51029;51.058;13.826;2023-07-16T06:25:37;1.60;;;1.50;;
64619;SDS011;51029;51.058;13.826;2023-07-16T06:28:05;1.90;;;1.70;;
64619;SDS011;51029;51.058;13.826;2023-07-16T06:30:30;2.27;;;1.93;;
64619;SDS011;51029;51.058;13.826;2023-07-16T06:32:57;2.27;;;1.87;;
64619;SDS011;51029;51.058;13.826;2023-07-16T06:35:23;2.20;;;2.00;;
64619;SDS011;51029;51.058;13.826;2023-07-16T06:37:49;2.13;;;1.90;;
64619;SDS011;51029;51.058;13.826;2023-07-16T06:40:14;2.20;;;1.80;;
64619;SDS011;51029;51.058;13.826;2023-07-16T06:42:40;2.50;;;1.87;;
64619;SDS011;51029;51.058;13.826;2023-07-16T06:45:06;3.37;;;1.90;;
64619;SDS011;51029;51.058;13.826;2023-07-16T06:47:32;2.17;;;1.97;;
64619;SDS011;51029;51.058;13.826;2023-07-16T06:49:57;2.40;;;1.90;;
64619;SDS011;51029;51.058;13.826;2023-07-16T06:52:23;2.60;;;2.00;;
64619;SDS011;51029;51.058;13.826;2023-07-16T06:54:55;2.07;;;1.70;;
64619;SDS011;51029;51.058;13.826;2023-07-16T06:57:22;2.63;;;1.83;;
64619;SDS011;51029;51.058;13.826;2023-07-16T06:59:48;2.87;;;1.90;;
64619;SDS011;51029;51.058;13.826;2023-07-16T07:02:15;2.83;;;2.00;;
64619;SDS011;51029;51.058;13.826;2023-07-16T07:04:42;3.83;;;2.07;;
64619;SDS011;51029;51.058;13.826;2023-07-16T07:07:07;1.90;;;1.70;;
64619;SDS011;51029;51.058;13.826;2023-07-16T07:09:33;1.97;;;1.77;;
64619;SDS011;51029;51.058;13.826;2023-07-16T07:11:59;2.50;;;1.90;;
64619;SDS011;51029;51.058;13.826;2023-07-16T07:14:24;2.37;;;2.03;;
64619;SDS011;51029;51.058;13.826;2023-07-16T07:16:50;2.00;;;1.80;;
64619;SDS011;51029;51.058;13.826;2023-07-16T07:19:16;2.23;;;1.70;;
64619;SDS011;51029;51.058;13.826;2023-07-16T07:21:41;2.20;;;2.00;;
64619;SDS011;51029;51.058;13.826;2023-07-16T07:24:07;2.40;;;1.97;;
64619;SDS011;51029;51.058;13.826;2023-07-16T07:26:32;2.43;;;1.90;;
64619;SDS011;51029;51.058;13.826;2023-07-16T07:28:58;2.17;;;1.80;;
64619;SDS011;51029;51.058;13.826;2023-07-16T07:31:23;1.87;;;1.77;;
64619;SDS011;51029;51.058;13.826;2023-07-16T07:33:49;2.13;;;1.73;;
64619;SDS011;51029;51.058;13.826;2023-07-16T07:36:15;2.50;;;1.73;;
64619;SDS011;51029;51.058;13.826;2023-07-16T07:38:40;1.93;;;1.60;;
64619;SDS011;51029;51.058;13.826;2023-07-16T07:41:06;2.70;;;1.70;;
64619;SDS011;51029;51.058;13.826;2023-07-16T07:43:32;1.60;;;1.40;;
64619;SDS011;51029;51.058;13.826;2023-07-16T07:45:57;2.50;;;1.73;;
64619;SDS011;51029;51.058;13.826;2023-07-16T07:48:23;1.60;;;1.50;;
64619;SDS011;51029;51.058;13.826;2023-07-16T07:50:49;2.40;;;1.77;;
64619;SDS011;51029;51.058;13.826;2023-07-16T07:53:14;2.27;;;1.53;;
64619;SDS011;51029;51.058;13.826;2023-07-16T07:55:42;2.83;;;1.60;;
64619;SDS011;51029;51.058;13.826;2023-07-16T07:58:09;2.13;;;1.60;;
64619;SDS011;51029;51.058;13.826;2023-07-16T08:00:34;4.83;;;1.87;;
64619;SDS011;51029;51.058;13.826;2023-07-16T08:03:00;2.77;;;1.70;;
64619;SDS011;51029;51.058;13.826;2023-07-16T08:05:25;2.50;;;1.60;;
64619;SDS011;51029;51.058;13.826;2023-07-16T08:07:51;3.73;;;2.03;;
64619;SDS011;51029;51.058;13.826;2023-07-16T08:10:17;3.07;;;1.73;;
64619;SDS011;51029;51.058;13.826;2023-07-16T08:12:42;2.63;;;2.00;;
64619;SDS011;51029;51.058;13.826;2023-07-16T08:15:08;3.13;;;1.80;;
64619;SDS011;51029;51.058;13.826;2023-07-16T08:17:38;2.93;;;1.80;;
64619;SDS011;51029;51.058;13.826;2023-07-16T08:20:05;2.23;;;1.73;;
64619;SDS011;51029;51.058;13.826;2023-07-16T08:22:32;3.67;;;2.00;;
64619;SDS011;51029;51.058;13.826;2023-07-16T08:24:57;4.00;;;1.70;;
64619;SDS011;51029;51.058;13.826;2023-07-16T08:27:23;3.07;;;1.73;;
64619;SDS011;51029;51.058;13.826;2023-07-16T08:29:49;2.90;;;1.90;;
64619;SDS011;51029;51.058;13.826;2023-07-16T08:32:14;2.47;;;1.87;;
64619;SDS011;51029;51.058;13.826;2023-07-16T08:34:40;3.77;;;1.90;;
64619;SDS011;51029;51.058;13.826;2023-07-16T08:37:05;3.03;;;2.13;;
64619;SDS011;51029;51.058;13.826;2023-07-16T08:39:31;2.40;;;1.90;;
64619;SDS011;51029;51.058;13.826;2023-07-16T08:41:57;3.40;;;1.77;;
64619;SDS011;51029;51.058;13.826;2023-07-16T08:44:23;2.60;;;1.90;;
64619;SDS011;51029;51.058;13.826;2023-07-16T08:46:49;2.30;;;1.80;;
64619;SDS011;51029;51.058;13.826;2023-07-16T08:49:16;3.53;;;1.80;;
64619;SDS011;51029;51.058;13.826;2023-07-16T08:51:43;1.87;;;1.73;;
64619;SDS011;51029;51.058;13.826;2023-07-16T08:54:12;3.80;;;2.10;;
64619;SDS011;51029;51.058;13.826;2023-07-16T08:56:40;4.50;;;2.20;;
64619;SDS011;51029;51.058;13.826;2023-07-16T08:59:07;3.67;;;2.10;;
64619;SDS011;51029;51.058;13.826;2023-07-16T09:01:33;3.77;;;2.03;;
64619;SDS011;51029;51.058;13.826;2023-07-16T09:03:59;3.13;;;1.90;;
64619;SDS011;51029;51.058;13.826;2023-07-16T09:06:25;4.00;;;2.03;;
64619;SDS011;51029;51.058;13.826;2023-07-16T09:08:50;6.20;;;2.23;;
64619;SDS011;51029;51.058;13.826;2023-07-16T09:11:16;2.87;;;2.07;;
64619;SDS011;51029;51.058;13.826;2023-07-16T09:13:46;3.57;;;1.67;;
64619;SDS011;51029;51.058;13.826;2023-07-16T09:16:12;3.90;;;1.90;;
64619;SDS011;51029;51.058;13.826;2023-07-16T09:18:39;2.33;;;1.50;;
64619;SDS011;51029;51.058;13.826;2023-07-16T09:21:05;4.27;;;1.90;;
64619;SDS011;51029;51.058;13.826;2023-07-16T09:23:32;3.67;;;1.73;;
64619;SDS011;51029;51.058;13.826;2023-07-16T09:25:57;4.13;;;1.80;;
64619;SDS011;51029;51.058;13.826;2023-07-16T09:28:23;3.00;;;1.70;;
64619;SDS011;51029;51.058;13.826;2023-07-16T09:30:50;3.47;;;1.80;;
64619;SDS011;51029;51.058;13.826;2023-07-16T09:33:17;2.27;;;1.73;;
64619;SDS011;51029;51.058;13.826;2023-07-16T09:35:43;4.13;;;1.87;;
64619;SDS011;51029;51.058;13.826;2023-07-16T09:38:09;3.47;;;1.90;;
64619;SDS011;51029;51.058;13.826;2023-07-16T09:40:36;3.27;;;1.80;;
64619;SDS011;51029;51.058;13.826;2023-07-16T09:43:02;4.13;;;2.00;;
64619;SDS011;51029;51.058;13.826;2023-07-16T09:45:28;2.87;;;2.10;;
64619;SDS011;51029;51.058;13.826;2023-07-16T09:47:54;2.17;;;1.70;;
64619;SDS011;51029;51.058;13.826;2023-07-16T09:50:20;2.90;;;1.80;;
64619;SDS011;51029;51.058;13.826;2023-07-16T09:52:52;4.43;;;2.03;;
64619;SDS011;51029;51.058;13.826;2023-07-16T09:55:18;5.13;;;1.80;;
64619;SDS011;51029;51.058;13.826;2023-07-16T09:57:46;2.58;;;1.73;;
64619;SDS011;51029;51.058;13.826;2023-07-16T10:00:13;5.13;;;1.88;;
64619;SDS011;51029;51.058;13.826;2023-07-16T10:02:40;2.47;;;1.50;;
64619;SDS011;51029;51.058;13.826;2023-07-16T10:05:13;4.88;;;1.80;;
64619;SDS011;51029;51.058;13.826;2023-07-16T10:07:43;2.97;;;1.80;;
64619;SDS011;51029;51.058;13.826;2023-07-16T10:10:16;3.00;;;1.80;;
64619;SDS011;51029;51.058;13.826;2023-07-16T10:12:43;2.65;;;1.70;;
64619;SDS011;51029;51.058;13.826;2023-07-16T10:15:24;2.50;;;1.60;;
64619;SDS011;51029;51.058;13.826;2023-07-16T10:17:54;2.83;;;1.88;;
64619;SDS011;51029;51.058;13.826;2023-07-16T10:20:36;3.15;;;2.00;;
64619;SDS011;51029;51.058;13.826;2023-07-16T10:23:14;3.70;;;2.08;;
64619;SDS011;51029;51.058;13.826;2023-07-16T10:25:40;6.50;;;2.10;;
64619;SDS011;51029;51.058;13.826;2023-07-16T10:28:25;2.63;;;1.63;;
64619;SDS011;51029;51.058;13.826;2023-07-16T10:30:51;2.92;;;1.80;;
64619;SDS011;51029;51.058;13.826;2023-07-16T10:33:17;4.78;;;1.90;;
64619;SDS011;51029;51.058;13.826;2023-07-16T10:35:44;3.90;;;1.90;;
64619;SDS011;51029;51.058;13.826;2023-07-16T10:38:10;2.85;;;1.83;;
64619;SDS011;51029;51.058;13.826;2023-07-16T10:40:42;2.92;;;1.85;;
64619;SDS011;51029;51.058;13.826;2023-07-16T10:43:09;3.75;;;1.73;;
64619;SDS011;51029;51.058;13.826;2023-07-16T10:45:35;3.50;;;1.92;;
64619;SDS011;51029;51.058;13.826;2023-07-16T10:48:01;2.42;;;2.00;;
64619;SDS011;51029;51.058;13.826;2023-07-16T10:50:27;3.55;;;2.10;;
64619;SDS011;51029;51.058;13.826;2023-07-16T10:52:56;4.32;;;2.08;;
64619;SDS011;51029;51.058;13.826;2023-07-16T10:55:22;4.28;;;1.90;;
64619;SDS011;51029;51.058;13.826;2023-07-16T10:57:48;4.50;;;1.92;;
64619;SDS011;51029;51.058;13.826;2023-07-16T11:00:15;3.08;;;2.63;;
64619;SDS011;51029;51.058;13.826;2023-07-16T11:02:42;3.60;;;1.70;;
64619;SDS011;51029;51.058;13.826;2023-07-16T11:05:11;3.53;;;1.80;;
64619;SDS011;51029;51.058;13.826;2023-07-16T11:07:43;3.60;;;1.73;;
64619;SDS011;51029;51.058;13.826;2023-07-16T11:10:10;3.40;;;1.77;;
64619;SDS011;51029;51.058;13.826;2023-07-16T11:12:35;2.83;;;1.65;;
64619;SDS011;51029;51.058;13.826;2023-07-16T11:15:01;3.85;;;2.00;;
64619;SDS011;51029;51.058;13.826;2023-07-16T11:17:27;3.88;;;2.00;;
64619;SDS011;51029;51.058;13.826;2023-07-16T11:19:53;2.53;;;1.60;;
64619;SDS011;51029;51.058;13.826;2023-07-16T11:22:24;3.25;;;1.95;;
64619;SDS011;51029;51.058;13.826;2023-07-16T11:24:51;4.18;;;1.60;;
64619;SDS011;51029;51.058;13.826;2023-07-16T11:27:18;2.25;;;1.67;;
64619;SDS011;51029;51.058;13.826;2023-07-16T11:29:51;3.63;;;1.80;;
64619;SDS011;51029;51.058;13.826;2023-07-16T11:32:34;2.80;;;1.63;;
64619;SDS011;51029;51.058;13.826;2023-07-16T11:35:15;3.45;;;1.75;;
64619;SDS011;51029;51.058;13.826;2023-07-16T11:37:42;3.28;;;2.00;;
64619;SDS011;51029;51.058;13.826;2023-07-16T11:40:09;2.72;;;1.92;;
64619;SDS011;51029;51.058;13.826;2023-07-16T11:42:36;4.63;;;2.30;;
64619;SDS011;51029;51.058;13.826;2023-07-16T11:45:03;3.33;;;2.22;;
64619;SDS011;51029;51.058;13.826;2023-07-16T11:47:30;6.43;;;1.98;;
64619;SDS011;51029;51.058;13.826;2023-07-16T11:49:56;5.07;;;2.20;;
64619;SDS011;51029;51.058;13.826;2023-07-16T11:52:22;3.45;;;2.10;;
64619;SDS011;51029;51.058;13.826;2023-07-16T11:54:51;3.58;;;2.05;;
64619;SDS011;51029;51.058;13.826;2023-07-16T11:57:17;5.65;;;2.22;;
64619;SDS011;51029;51.058;13.826;2023-07-16T11:59:42;2.90;;;2.08;;
64619;SDS011;51029;51.058;13.826;2023-07-16T12:02:08;4.25;;;1.90;;
64619;SDS011;51029;51.058;13.826;2023-07-16T12:04:34;3.50;;;1.95;;
64619;SDS011;51029;51.058;13.826;2023-07-16T12:07:00;2.63;;;1.80;;
64619;SDS011;51029;51.058;13.826;2023-07-16T12:09:25;2.45;;;1.77;;
64619;SDS011;51029;51.058;13.826;2023-07-16T12:11:51;2.70;;;1.80;;
64619;SDS011;51029;51.058;13.826;2023-07-16T12:14:16;2.45;;;1.77;;
64619;SDS011;51029;51.058;13.826;2023-07-16T12:16:42;2.95;;;1.90;;
64619;SDS011;51029;51.058;13.826;2023-07-16T12:19:08;3.58;;;2.10;;
64619;SDS011;51029;51.058;13.826;2023-07-16T12:21:34;4.60;;;1.80;;
64619;SDS011;51029;51.058;13.826;2023-07-16T12:24:00;3.45;;;1.80;;
64619;SDS011;51029;51.058;13.826;2023-07-16T12:26:26;2.78;;;1.73;;
64619;SDS011;51029;51.058;13.826;2023-07-16T12:28:52;3.75;;;1.73;;
64619;SDS011;51029;51.058;13.826;2023-07-16T12:31:18;1.85;;;1.60;;
64619;SDS011;51029;51.058;13.826;2023-07-16T12:33:45;2.92;;;1.40;;
64619;SDS011;51029;51.058;13.826;2023-07-16T12:36:11;4.40;;;1.60;;
64619;SDS011;51029;51.058;13.826;2023-07-16T12:38:37;2.75;;;1.60;;
64619;SDS011;51029;51.058;13.826;2023-07-16T12:41:03;3.15;;;1.70;;
64619;SDS011;51029;51.058;13.826;2023-07-16T12:43:28;1.85;;;1.48;;
64619;SDS011;51029;51.058;13.826;2023-07-16T12:45:54;2.55;;;1.67;;
64619;SDS011;51029;51.058;13.826;2023-07-16T12:48:19;3.20;;;1.50;;
64619;SDS011;51029;51.058;13.826;2023-07-16T12:50:45;2.70;;;1.70;;
64619;SDS011;51029;51.058;13.826;2023-07-16T12:53:11;2.33;;;1.45;;
64619;SDS011;51029;51.058;13.826;2023-07-16T12:55:37;3.17;;;1.60;;
64619;SDS011;51029;51.058;13.826;2023-07-16T12:58:03;3.00;;;1.60;;
64619;SDS011;51029;51.058;13.826;2023-07-16T13:00:28;2.92;;;1.60;;
64619;SDS011;51029;51.058;13.826;2023-07-16T13:02:54;2.78;;;1.58;;
64619;SDS011;51029;51.058;13.826;2023-07-16T13:05:19;2.58;;;1.63;;
64619;SDS011;51029;51.058;13.826;2023-07-16T13:07:45;2.42;;;1.50;;
64619;SDS011;51029;51.058;13.826;2023-07-16T13:10:10;3.22;;;1.88;;
64619;SDS011;51029;51.058;13.826;2023-07-16T13:12:36;3.22;;;1.90;;
64619;SDS011;51029;51.058;13.826;2023-07-16T13:15:02;4.13;;;1.67;;
64619;SDS011;51029;51.058;13.826;2023-07-16T13:17:27;2.10;;;1.70;;
64619;SDS011;51029;51.058;13.826;2023-07-16T13:19:53;2.42;;;1.90;;
64619;SDS011;51029;51.058;13.826;2023-07-16T13:22:18;3.17;;;1.85;;
64619;SDS011;51029;51.058;13.826;2023-07-16T13:24:44;5.50;;;1.75;;
64619;SDS011;51029;51.058;13.826;2023-07-16T13:27:10;3.50;;;1.58;;
64619;SDS011;51029;51.058;13.826;2023-07-16T13:29:44;3.30;;;1.58;;
64619;SDS011;51029;51.058;13.826;2023-07-16T13:32:10;1.80;;;1.40;;
64619;SDS011;51029;51.058;13.826;2023-07-16T13:34:35;2.20;;;1.42;;
64619;SDS011;51029;51.058;13.826;2023-07-16T13:37:01;2.80;;;1.60;;
64619;SDS011;51029;51.058;13.826;2023-07-16T13:39:27;3.85;;;1.60;;
64619;SDS011;51029;51.058;13.826;2023-07-16T13:41:52;1.98;;;1.50;;
64619;SDS011;51029;51.058;13.826;2023-07-16T13:44:18;2.97;;;1.55;;
64619;SDS011;51029;51.058;13.826;2023-07-16T13:46:43;3.03;;;1.67;;
64619;SDS011;51029;51.058;13.826;2023-07-16T13:49:09;3.15;;;1.70;;
64619;SDS011;51029;51.058;13.826;2023-07-16T13:51:34;2.97;;;1.63;;
64619;SDS011;51029;51.058;13.826;2023-07-16T13:54:00;2.60;;;1.92;;
64619;SDS011;51029;51.058;13.826;2023-07-16T13:56:25;6.43;;;2.20;;
64619;SDS011;51029;51.058;13.826;2023-07-16T13:58:51;3.40;;;1.70;;
64619;SDS011;51029;51.058;13.826;2023-07-16T14:01:18;3.13;;;1.83;;
64619;SDS011;51029;51.058;13.826;2023-07-16T14:03:44;3.70;;;1.55;;
64619;SDS011;51029;51.058;13.826;2023-07-16T14:06:10;3.85;;;1.70;;
64619;SDS011;51029;51.058;13.826;2023-07-16T14:08:35;4.40;;;1.83;;
64619;SDS011;51029;51.058;13.826;2023-07-16T14:11:01;5.60;;;1.95;;
64619;SDS011;51029;51.058;13.826;2023-07-16T14:13:28;2.85;;;1.73;;
64619;SDS011;51029;51.058;13.826;2023-07-16T14:15:54;3.40;;;1.70;;
64619;SDS011;51029;51.058;13.826;2023-07-16T14:18:19;3.33;;;1.70;;
64619;SDS011;51029;51.058;13.826;2023-07-16T14:20:45;4.20;;;1.80;;
64619;SDS011;51029;51.058;13.826;2023-07-16T14:23:11;3.00;;;1.70;;
64619;SDS011;51029;51.058;13.826;2023-07-16T14:25:36;3.83;;;1.98;;
64619;SDS011;51029;51.058;13.826;2023-07-16T14:28:02;4.25;;;1.73;;
64619;SDS011;51029;51.058;13.826;2023-07-16T14:30:28;3.05;;;1.80;;
64619;SDS011;51029;51.058;13.826;2023-07-16T14:32:54;3.67;;;2.15;;
64619;SDS011;51029;51.058;13.826;2023-07-16T14:35:20;4.25;;;2.10;;
64619;SDS011;51029;51.058;13.826;2023-07-16T14:37:45;3.10;;;2.00;;